Time;durP1;ratioP1;P1;durP2;ratioP2;P2;SDS_P1;SDS_P2;PMS_P1;PMS_P2;Temp;Humidity;BMP_temperature;BMP_pressure;BME280_temperature;BME280_humidity;BME280_pressure;Samples;Min_cycle;Max_cycle;Signal;HPM_P1;HPM_P2
2023/11/29 00:02:01;;;;;;;11.02;5.25;;;;;;;;;;5064864;28;20029;-52
2023/11/29 00:04:27;;;;;;;10.88;5.40;;;;;;;;;;5064322;28;20095;-52
2023/11/29 00:06:54;;;;;;;7.53;4.95;;;;;;;;;;5064172;28;20064;-51
2023/11/29 00:09:21;;;;;;;11.02;4.97;;;;;;;;;;5064047;28;20304;-52
2023/11/29 00:11:48;;;;;;;13.13;4.93;;;;;;;;;;5063690;28;20033;-52
2023/11/29 00:14:14;;;;;;;7.80;4.45;;;;;;;;;;5064201;28;20370;-54
2023/11/29 00:16:41;;;;;;;10.85;4.57;;;;;;;;;;5064711;28;20074;-52
2023/11/29 00:19:08;;;;;;;9.52;4.70;;;;;;;;;;5064338;28;20131;-51
2023/11/29 00:21:40;;;;;;;11.77;4.43;;;;;;;;;;5064643;28;20051;-51
2023/11/29 00:24:07;;;;;;;7.15;3.95;;;;;;;;;;5063859;28;20025;-52
2023/11/29 00:26:34;;;;;;;11.32;4.20;;;;;;;;;;5063573;28;20220;-53
2023/11/29 00:29:01;;;;;;;10.35;4.35;;;;;;;;;;5063671;28;20025;-54
2023/11/29 00:31:28;;;;;;;20.63;4.53;;;;;;;;;;5064242;28;20024;-52
2023/11/29 00:33:58;;;;;;;7.60;4.38;;;;;;;;;;5064085;28;20092;-53
2023/11/29 00:36:26;;;;;;;10.25;4.50;;;;;;;;;;5063372;28;20053;-51
2023/11/29 00:38:56;;;;;;;10.48;4.30;;;;;;;;;;5063467;28;20062;-53
2023/11/29 00:41:24;;;;;;;10.18;3.95;;;;;;;;;;5063721;28;20033;-55
2023/11/29 00:43:51;;;;;;;11.27;4.35;;;;;;;;;;5063677;28;20036;-53
2023/11/29 00:46:18;;;;;;;12.05;4.35;;;;;;;;;;5063749;28;20209;-54
2023/11/29 00:48:46;;;;;;;12.95;4.78;;;;;;;;;;5063758;28;20033;-56
2023/11/29 00:51:13;;;;;;;7.72;4.47;;;;;;;;;;5063526;28;20037;-52
2023/11/29 00:53:41;;;;;;;12.55;4.53;;;;;;;;;;5063734;28;20137;-51
2023/11/29 00:56:09;;;;;;;17.50;6.30;;;;;;;;;;5061957;28;20021;-57
2023/11/29 00:58:36;;;;;;;21.33;8.25;;;;;;;;;;5064542;28;20084;-53
2023/11/29 01:01:07;;;;;;;24.42;9.65;;;;;;;;;;5064808;28;20228;-52
2023/11/29 01:03:34;;;;;;;23.45;7.78;;;;;;;;;;5067126;28;20044;-52
2023/11/29 01:06:01;;;;;;;18.83;7.18;;;;;;;;;;5067535;28;20043;-54
2023/11/29 01:08:28;;;;;;;17.10;6.70;;;;;;;;;;5066360;28;20115;-52
2023/11/29 01:10:55;;;;;;;13.32;5.90;;;;;;;;;;5066213;28;20056;-54
2023/11/29 01:13:21;;;;;;;11.85;5.65;;;;;;;;;;5066883;28;20029;-51
2023/11/29 01:15:48;;;;;;;10.35;5.00;;;;;;;;;;5067519;28;20059;-50
2023/11/29 01:18:16;;;;;;;9.55;4.70;;;;;;;;;;5066534;28;20366;-51
2023/11/29 01:20:44;;;;;;;8.77;4.45;;;;;;;;;;5064898;28;20056;-51
2023/11/29 01:23:14;;;;;;;9.63;4.68;;;;;;;;;;5065657;28;20023;-55
2023/11/29 01:25:41;;;;;;;9.98;4.80;;;;;;;;;;5066340;28;20037;-52
2023/11/29 01:28:08;;;;;;;10.07;4.25;;;;;;;;;;5066761;28;20028;-52
2023/11/29 01:30:34;;;;;;;8.73;4.38;;;;;;;;;;5066669;28;20025;-52
2023/11/29 01:33:05;;;;;;;8.48;4.40;;;;;;;;;;5066761;28;20029;-55
2023/11/29 01:35:31;;;;;;;13.00;4.45;;;;;;;;;;5067226;28;20203;-51
2023/11/29 01:37:58;;;;;;;10.65;4.10;;;;;;;;;;5066875;28;20360;-55
2023/11/29 01:40:25;;;;;;;7.43;3.88;;;;;;;;;;5066852;28;20087;-54
2023/11/29 01:42:52;;;;;;;9.57;4.40;;;;;;;;;;5066831;28;20033;-54
2023/11/29 01:45:18;;;;;;;9.73;4.40;;;;;;;;;;5066734;28;20033;-54
2023/11/29 01:47:45;;;;;;;9.20;4.00;;;;;;;;;;5066579;28;20067;-51
2023/11/29 01:50:13;;;;;;;7.00;4.07;;;;;;;;;;5066259;28;20029;-51
2023/11/29 01:52:41;;;;;;;6.00;3.70;;;;;;;;;;5066492;28;20021;-50
2023/11/29 01:55:11;;;;;;;6.15;3.85;;;;;;;;;;5065995;28;20017;-50
2023/11/29 01:57:37;;;;;;;10.35;3.97;;;;;;;;;;5066415;28;20212;-51
2023/11/29 02:00:04;;;;;;;6.28;3.20;;;;;;;;;;5066160;28;20232;-51
2023/11/29 02:02:31;;;;;;;9.13;3.65;;;;;;;;;;5066259;28;20036;-51
2023/11/29 02:04:59;;;;;;;9.55;3.78;;;;;;;;;;5066397;28;20017;-52
2023/11/29 02:07:26;;;;;;;7.07;3.55;;;;;;;;;;5066415;28;20017;-51
2023/11/29 02:09:53;;;;;;;6.60;3.05;;;;;;;;;;5066125;28;20123;-53
2023/11/29 02:12:20;;;;;;;6.68;3.45;;;;;;;;;;5066238;28;20311;-51
2023/11/29 02:14:47;;;;;;;5.75;3.53;;;;;;;;;;5076398;28;20063;-50
2023/11/29 02:17:14;;;;;;;7.65;3.63;;;;;;;;;;5086723;28;20249;-50
2023/11/29 02:19:40;;;;;;;7.72;3.97;;;;;;;;;;5086260;28;20028;-52
2023/11/29 02:22:07;;;;;;;9.40;3.58;;;;;;;;;;5086023;28;20048;-50
2023/11/29 02:24:52;;;;;;;8.65;4.78;;;;;;;;;;5086269;28;20025;-52
2023/11/29 02:27:19;;;;;;;11.70;4.80;;;;;;;;;;5086612;28;20097;-51
2023/11/29 02:29:45;;;;;;;19.20;4.82;;;;;;;;;;5085929;28;20083;-53
2023/11/29 02:32:12;;;;;;;8.85;4.20;;;;;;;;;;5086105;28;20262;-51
2023/11/29 02:34:40;;;;;;;6.22;3.65;;;;;;;;;;5085972;28;20040;-52
2023/11/29 02:37:07;;;;;;;9.95;4.20;;;;;;;;;;5086870;28;20028;-52
2023/11/29 02:39:33;;;;;;;5.72;3.65;;;;;;;;;;5068113;28;20204;-51
2023/11/29 02:42:00;;;;;;;11.98;3.70;;;;;;;;;;5086755;28;20025;-52
2023/11/29 02:44:27;;;;;;;8.13;3.78;;;;;;;;;;5086229;28;20091;-51
2023/11/29 02:46:53;;;;;;;7.07;3.70;;;;;;;;;;5086423;28;20036;-51
2023/11/29 02:49:23;;;;;;;14.00;3.83;;;;;;;;;;5086113;28;20020;-51
2023/11/29 02:51:50;;;;;;;15.93;4.47;;;;;;;;;;5086392;28;20075;-51
2023/11/29 02:54:18;;;;;;;13.95;4.28;;;;;;;;;;5085906;28;20024;-49
2023/11/29 02:56:45;;;;;;;8.30;3.72;;;;;;;;;;5081213;28;20039;-50
2023/11/29 02:59:11;;;;;;;7.93;3.45;;;;;;;;;;5065949;28;20041;-51
2023/11/29 03:01:38;;;;;;;9.23;3.88;;;;;;;;;;5080544;28;20048;-55
2023/11/29 03:04:05;;;;;;;8.68;3.53;;;;;;;;;;5081232;28;20016;-54
2023/11/29 03:06:32;;;;;;;8.38;3.40;;;;;;;;;;5068559;28;20351;-51
2023/11/29 03:08:58;;;;;;;5.70;3.35;;;;;;;;;;5057595;28;20067;-52
2023/11/29 03:11:25;;;;;;;7.38;3.30;;;;;;;;;;5064624;28;20029;-52
2023/11/29 03:13:52;;;;;;;8.32;3.50;;;;;;;;;;5064312;28;20031;-56
2023/11/29 03:16:19;;;;;;;6.68;3.33;;;;;;;;;;5062841;28;20028;-52
2023/11/29 03:18:47;;;;;;;9.57;3.70;;;;;;;;;;5068703;28;20024;-51
2023/11/29 03:21:13;;;;;;;8.63;3.25;;;;;;;;;;5063694;28;20120;-52
2023/11/29 03:23:40;;;;;;;8.45;3.83;;;;;;;;;;5061161;28;20029;-49
2023/11/29 03:26:07;;;;;;;6.28;3.40;;;;;;;;;;5044934;28;20031;-51
2023/11/29 03:28:34;;;;;;;8.82;3.42;;;;;;;;;;5060430;28;20335;-57
2023/11/29 03:31:01;;;;;;;6.68;3.25;;;;;;;;;;5063563;28;20307;-50
2023/11/29 03:33:29;;;;;;;7.60;3.08;;;;;;;;;;5065556;28;20057;-51
2023/11/29 03:35:57;;;;;;;6.38;3.17;;;;;;;;;;5064843;28;20045;-54
2023/11/29 03:38:23;;;;;;;5.85;2.85;;;;;;;;;;5059450;28;20024;-53
2023/11/29 03:40:50;;;;;;;9.40;3.17;;;;;;;;;;5063506;28;20028;-51
2023/11/29 03:43:18;;;;;;;5.88;3.00;;;;;;;;;;5063462;28;20033;-50
2023/11/29 03:45:44;;;;;;;16.45;3.50;;;;;;;;;;5063581;28;20021;-56
2023/11/29 03:48:12;;;;;;;6.82;3.17;;;;;;;;;;5063596;28;20063;-54
2023/11/29 03:50:43;;;;;;;7.95;3.40;;;;;;;;;;5063762;28;20329;-56
2023/11/29 03:53:10;;;;;;;6.22;3.30;;;;;;;;;;5063950;28;20032;-51
2023/11/29 03:55:37;;;;;;;7.20;3.47;;;;;;;;;;5045852;28;20027;-49
2023/11/29 03:58:04;;;;;;;7.22;3.15;;;;;;;;;;5063839;28;20309;-48
2023/11/29 04:00:30;;;;;;;6.20;3.05;;;;;;;;;;5063369;28;20052;-54
2023/11/29 04:02:59;;;;;;;8.38;2.92;;;;;;;;;;5062950;28;20044;-50
2023/11/29 04:05:26;;;;;;;4.90;3.15;;;;;;;;;;5063535;28;20029;-51
2023/11/29 04:07:53;;;;;;;5.93;3.10;;;;;;;;;;5063704;28;20028;-52
2023/11/29 04:10:19;;;;;;;6.68;2.85;;;;;;;;;;5057633;28;20036;-52
2023/11/29 04:12:46;;;;;;;7.93;2.95;;;;;;;;;;5046645;28;20187;-54
2023/11/29 04:15:19;;;;;;;5.30;2.95;;;;;;;;;;5042729;28;20028;-49
2023/11/29 04:17:45;;;;;;;4.93;2.88;;;;;;;;;;5044140;28;20033;-51
2023/11/29 04:20:12;;;;;;;5.30;3.00;;;;;;;;;;5043960;28;20075;-54
2023/11/29 04:22:40;;;;;;;5.43;3.15;;;;;;;;;;5043793;28;20033;-54
2023/11/29 04:25:07;;;;;;;15.68;3.30;;;;;;;;;;5043631;28;20020;-49
2023/11/29 04:27:34;;;;;;;5.97;2.80;;;;;;;;;;5043797;28;20096;-53
2023/11/29 04:30:00;;;;;;;7.38;2.78;;;;;;;;;;5043440;28;20052;-51
2023/11/29 04:32:27;;;;;;;5.95;3.13;;;;;;;;;;5043617;28;20045;-53
2023/11/29 04:34:54;;;;;;;7.72;3.17;;;;;;;;;;5043852;28;20247;-50
2023/11/29 04:37:20;;;;;;;6.78;3.13;;;;;;;;;;5047465;28;20029;-51
2023/11/29 04:39:48;;;;;;;7.60;2.35;;;;;;;;;;5047921;28;20087;-51
2023/11/29 04:42:15;;;;;;;3.75;2.50;;;;;;;;;;5048126;28;20032;-50
2023/11/29 04:44:41;;;;;;;5.53;2.80;;;;;;;;;;5047436;28;20091;-50
2023/11/29 04:47:08;;;;;;;6.63;3.13;;;;;;;;;;5048047;28;20018;-49
2023/11/29 04:49:35;;;;;;;26.73;2.80;;;;;;;;;;5047382;28;20033;-51
2023/11/29 04:52:01;;;;;;;14.98;3.10;;;;;;;;;;5048050;28;20033;-50
2023/11/29 04:54:28;;;;;;;5.68;3.05;;;;;;;;;;5047596;28;20026;-51
2023/11/29 04:56:56;;;;;;;5.00;3.03;;;;;;;;;;5051453;28;20029;-52
2023/11/29 04:59:23;;;;;;;7.60;2.70;;;;;;;;;;5066976;28;20033;-53
2023/11/29 05:01:49;;;;;;;5.30;3.22;;;;;;;;;;5067699;28;20036;-53
2023/11/29 05:04:16;;;;;;;5.20;3.00;;;;;;;;;;5067088;28;20033;-51
2023/11/29 05:06:43;;;;;;;5.10;3.22;;;;;;;;;;5067586;28;20031;-54
2023/11/29 05:09:14;;;;;;;6.35;2.85;;;;;;;;;;5067065;28;20092;-52
2023/11/29 05:11:41;;;;;;;15.75;3.08;;;;;;;;;;5067301;28;20419;-53
2023/11/29 05:14:08;;;;;;;11.15;3.10;;;;;;;;;;5067243;28;20088;-53
2023/11/29 05:16:34;;;;;;;7.10;2.97;;;;;;;;;;5067396;28;20021;-56
2023/11/29 05:19:01;;;;;;;5.78;2.95;;;;;;;;;;5066990;28;20029;-52
2023/11/29 05:21:28;;;;;;;4.22;2.70;;;;;;;;;;5077326;28;20232;-56
2023/11/29 05:23:55;;;;;;;7.32;2.83;;;;;;;;;;5086934;28;20052;-55
2023/11/29 05:26:21;;;;;;;8.07;2.63;;;;;;;;;;5087061;28;20086;-55
2023/11/29 05:28:48;;;;;;;6.40;2.85;;;;;;;;;;5086600;28;20036;-56
2023/11/29 05:31:15;;;;;;;14.48;3.30;;;;;;;;;;5086835;28;20012;-53
2023/11/29 05:33:42;;;;;;;7.18;2.60;;;;;;;;;;5086623;28;20036;-52
2023/11/29 05:36:09;;;;;;;6.10;2.97;;;;;;;;;;5086622;28;20293;-50
2023/11/29 05:38:36;;;;;;;8.35;3.10;;;;;;;;;;5086654;28;20024;-50
2023/11/29 05:41:02;;;;;;;5.85;2.60;;;;;;;;;;5086751;28;20035;-54
2023/11/29 05:43:29;;;;;;;5.53;2.60;;;;;;;;;;5086553;28;20043;-53
2023/11/29 05:45:56;;;;;;;5.25;2.50;;;;;;;;;;5086700;28;20312;-53
2023/11/29 05:48:24;;;;;;;4.07;2.60;;;;;;;;;;5085164;28;20085;-51
2023/11/29 05:50:50;;;;;;;7.13;3.17;;;;;;;;;;5086248;28;20035;-54
2023/11/29 05:53:18;;;;;;;11.18;2.78;;;;;;;;;;5086325;28;20028;-54
2023/11/29 05:55:45;;;;;;;4.22;2.60;;;;;;;;;;5086488;28;20032;-51
2023/11/29 05:58:12;;;;;;;6.22;2.83;;;;;;;;;;5086126;28;20025;-55
2023/11/29 06:00:38;;;;;;;6.00;2.72;;;;;;;;;;5075380;28;20059;-53
2023/11/29 06:03:06;;;;;;;6.38;3.00;;;;;;;;;;5066088;28;20033;-53
2023/11/29 06:05:33;;;;;;;5.07;2.60;;;;;;;;;;5066074;28;20321;-57
2023/11/29 06:07:59;;;;;;;5.47;2.70;;;;;;;;;;5066126;28;20095;-56
2023/11/29 06:10:26;;;;;;;7.25;2.70;;;;;;;;;;5066003;28;20033;-50
2023/11/29 06:12:53;;;;;;;16.58;2.45;;;;;;;;;;5065831;28;20028;-53
2023/11/29 06:15:20;;;;;;;4.50;2.17;;;;;;;;;;5065785;28;20020;-58
2023/11/29 06:17:47;;;;;;;6.05;2.53;;;;;;;;;;5065918;28;20100;-55
2023/11/29 06:20:18;;;;;;;9.02;2.95;;;;;;;;;;5065679;28;20019;-55
2023/11/29 06:22:44;;;;;;;10.55;2.80;;;;;;;;;;5066039;28;20309;-53
2023/11/29 06:25:11;;;;;;;4.85;2.65;;;;;;;;;;5065731;28;20029;-56
2023/11/29 06:27:38;;;;;;;6.68;2.53;;;;;;;;;;5065595;28;20024;-58
2023/11/29 06:30:06;;;;;;;4.55;2.47;;;;;;;;;;5065587;28;20027;-56
2023/11/29 06:32:35;;;;;;;4.05;2.47;;;;;;;;;;5065602;28;20032;-54
2023/11/29 06:35:01;;;;;;;3.42;2.20;;;;;;;;;;5065391;28;20025;-53
2023/11/29 06:37:28;;;;;;;3.65;2.50;;;;;;;;;;5065525;28;20029;-49
2023/11/29 06:39:55;;;;;;;4.25;2.40;;;;;;;;;;5065506;28;20029;-50
2023/11/29 06:42:21;;;;;;;5.07;2.40;;;;;;;;;;5065924;28;20088;-50
2023/11/29 06:44:48;;;;;;;7.68;2.80;;;;;;;;;;5065319;28;20024;-49
2023/11/29 06:47:17;;;;;;;3.92;2.60;;;;;;;;;;5065653;28;20096;-48
2023/11/29 06:49:44;;;;;;;4.57;2.70;;;;;;;;;;5065117;28;20035;-51
2023/11/29 06:52:12;;;;;;;5.40;2.80;;;;;;;;;;5065457;28;20067;-49
2023/11/29 06:54:39;;;;;;;8.38;3.42;;;;;;;;;;5065186;28;20090;-50
2023/11/29 06:57:06;;;;;;;6.75;2.80;;;;;;;;;;5065510;28;20028;-54
2023/11/29 06:59:34;;;;;;;7.03;2.83;;;;;;;;;;5066155;28;20320;-50
2023/11/29 07:02:04;;;;;;;6.25;2.45;;;;;;;;;;5085436;28;20047;-50
2023/11/29 07:04:31;;;;;;;6.55;2.70;;;;;;;;;;5084935;28;20058;-50
2023/11/29 07:06:59;;;;;;;4.60;2.40;;;;;;;;;;5084867;28;20219;-50
2023/11/29 07:09:26;;;;;;;3.95;2.65;;;;;;;;;;5084965;28;20107;-51
2023/11/29 07:11:52;;;;;;;5.10;2.40;;;;;;;;;;5085009;28;20075;-53
2023/11/29 07:14:19;;;;;;;5.05;2.80;;;;;;;;;;5084814;28;20232;-52
2023/11/29 07:16:46;;;;;;;6.13;2.75;;;;;;;;;;5085056;28;20032;-50
2023/11/29 07:19:13;;;;;;;4.55;2.60;;;;;;;;;;5084647;28;20281;-54
2023/11/29 07:21:40;;;;;;;5.93;2.78;;;;;;;;;;5085154;28;20288;-51
2023/11/29 07:24:06;;;;;;;4.38;2.53;;;;;;;;;;5084617;28;20143;-55
2023/11/29 07:26:33;;;;;;;5.85;2.67;;;;;;;;;;5084879;28;20039;-53
2023/11/29 07:29:00;;;;;;;7.45;2.78;;;;;;;;;;5084405;28;20044;-54
2023/11/29 07:31:26;;;;;;;6.00;2.58;;;;;;;;;;5084612;28;20020;-55
2023/11/29 07:33:53;;;;;;;4.35;2.55;;;;;;;;;;5084414;28;20036;-53
2023/11/29 07:36:20;;;;;;;4.30;2.30;;;;;;;;;;5084403;28;20054;-52
2023/11/29 07:38:46;;;;;;;13.32;2.50;;;;;;;;;;5084398;28;20064;-51
2023/11/29 07:41:13;;;;;;;7.03;2.28;;;;;;;;;;5084460;28;20328;-51
2023/11/29 07:43:40;;;;;;;5.53;2.40;;;;;;;;;;5084072;28;20111;-53
2023/11/29 07:46:07;;;;;;;5.47;2.30;;;;;;;;;;5084461;28;20332;-55
2023/11/29 07:48:33;;;;;;;4.47;2.22;;;;;;;;;;5084127;28;20104;-55
2023/11/29 07:51:00;;;;;;;6.28;2.38;;;;;;;;;;5083843;28;20048;-56
2023/11/29 07:53:28;;;;;;;4.15;2.35;;;;;;;;;;5084113;28;20374;-55
2023/11/29 07:55:55;;;;;;;6.10;2.60;;;;;;;;;;5084199;28;20024;-53
2023/11/29 07:58:22;;;;;;;8.40;2.58;;;;;;;;;;5083945;28;20043;-54
2023/11/29 08:00:50;;;;;;;5.20;2.70;;;;;;;;;;5084052;28;20059;-50
2023/11/29 08:03:16;;;;;;;6.22;2.80;;;;;;;;;;5083973;28;20232;-49
2023/11/29 08:05:43;;;;;;;3.72;2.15;;;;;;;;;;5084078;28;20017;-51
2023/11/29 08:08:10;;;;;;;5.68;2.72;;;;;;;;;;5084043;28;20032;-51
2023/11/29 08:10:37;;;;;;;5.85;2.40;;;;;;;;;;5083348;28;20024;-52
2023/11/29 08:13:04;;;;;;;10.10;2.85;;;;;;;;;;5083711;28;20024;-51
2023/11/29 08:15:30;;;;;;;5.82;2.35;;;;;;;;;;5083954;28;20040;-53
2023/11/29 08:17:57;;;;;;;5.43;2.55;;;;;;;;;;5083958;28;20028;-53
2023/11/29 08:20:24;;;;;;;4.25;2.30;;;;;;;;;;5083811;28;20084;-53
2023/11/29 08:22:50;;;;;;;3.47;2.17;;;;;;;;;;5083918;28;20034;-54
2023/11/29 08:25:17;;;;;;;10.25;2.92;;;;;;;;;;5083845;28;20028;-57
2023/11/29 08:27:44;;;;;;;4.88;2.40;;;;;;;;;;5083627;28;20028;-50
2023/11/29 08:30:11;;;;;;;3.28;2.42;;;;;;;;;;5083827;28;20070;-51
2023/11/29 08:32:40;;;;;;;6.85;2.88;;;;;;;;;;5083659;28;20029;-57
2023/11/29 08:35:08;;;;;;;6.68;2.80;;;;;;;;;;5083543;28;20042;-52
2023/11/29 08:37:35;;;;;;;4.63;2.42;;;;;;;;;;5083621;28;20317;-57
2023/11/29 08:40:03;;;;;;;4.40;2.60;;;;;;;;;;5083594;28;20021;-54
2023/11/29 08:42:30;;;;;;;4.25;2.53;;;;;;;;;;5083544;28;20193;-55
2023/11/29 08:44:58;;;;;;;6.50;2.80;;;;;;;;;;5083567;28;20032;-52
2023/11/29 08:47:25;;;;;;;7.53;2.60;;;;;;;;;;5083466;28;20062;-54
2023/11/29 08:49:52;;;;;;;3.53;2.28;;;;;;;;;;5083387;28;20044;-52
2023/11/29 08:52:19;;;;;;;6.78;2.42;;;;;;;;;;5083916;28;20189;-53
2023/11/29 08:54:49;;;;;;;6.53;2.40;;;;;;;;;;5083390;28;20017;-53
2023/11/29 08:57:20;;;;;;;5.35;2.30;;;;;;;;;;5083687;28;20078;-53
2023/11/29 08:59:47;;;;;;;6.75;2.70;;;;;;;;;;5083327;28;20044;-52
2023/11/29 09:02:14;;;;;;;3.92;2.45;;;;;;;;;;5083895;28;20328;-53
2023/11/29 09:04:41;;;;;;;3.35;2.55;;;;;;;;;;5083278;28;20039;-52
2023/11/29 09:07:07;;;;;;;7.03;2.67;;;;;;;;;;5083882;28;20308;-53
2023/11/29 09:09:34;;;;;;;4.57;2.20;;;;;;;;;;5083433;28;20036;-53
2023/11/29 09:12:01;;;;;;;3.30;2.30;;;;;;;;;;5083535;28;20304;-52
2023/11/29 09:14:29;;;;;;;6.45;2.33;;;;;;;;;;5083298;28;20032;-54
2023/11/29 09:16:56;;;;;;;6.40;2.67;;;;;;;;;;5083649;28;20020;-53
2023/11/29 09:19:23;;;;;;;9.85;2.70;;;;;;;;;;5083193;28;20316;-51
2023/11/29 09:21:50;;;;;;;5.72;2.63;;;;;;;;;;5084960;28;20040;-56
2023/11/29 09:24:16;;;;;;;6.05;3.67;;;;;;;;;;5086973;28;20032;-55
2023/11/29 09:26:43;;;;;;;6.78;2.40;;;;;;;;;;5087073;28;20017;-56
2023/11/29 09:29:10;;;;;;;8.82;2.75;;;;;;;;;;5086781;28;20028;-57
2023/11/29 09:31:37;;;;;;;5.88;2.45;;;;;;;;;;5086963;28;20020;-56
2023/11/29 09:34:04;;;;;;;5.45;2.45;;;;;;;;;;5086754;28;20025;-55
2023/11/29 09:36:30;;;;;;;4.28;2.65;;;;;;;;;;5086967;28;20035;-52
2023/11/29 09:38:57;;;;;;;4.82;2.78;;;;;;;;;;5086715;28;20036;-53
2023/11/29 09:41:24;;;;;;;4.00;2.63;;;;;;;;;;5078471;28;20118;-56
2023/11/29 09:43:51;;;;;;;3.40;2.42;;;;;;;;;;5086491;28;20047;-51
2023/11/29 09:46:18;;;;;;;5.13;2.85;;;;;;;;;;5086751;28;20035;-51
2023/11/29 09:48:45;;;;;;;5.72;2.63;;;;;;;;;;5086366;28;20024;-54
2023/11/29 09:51:11;;;;;;;4.90;2.50;;;;;;;;;;5086614;28;20040;-53
2023/11/29 09:53:38;;;;;;;8.65;2.70;;;;;;;;;;5086336;28;20021;-51
2023/11/29 09:56:06;;;;;;;5.57;2.80;;;;;;;;;;5086479;28;20012;-54
2023/11/29 09:58:33;;;;;;;7.13;2.60;;;;;;;;;;5086561;28;20095;-54
2023/11/29 10:00:59;;;;;;;3.40;2.30;;;;;;;;;;5086174;28;20055;-52
2023/11/29 10:03:26;;;;;;;4.88;2.40;;;;;;;;;;5086113;28;20067;-52
2023/11/29 10:05:53;;;;;;;6.68;2.65;;;;;;;;;;5086448;28;20155;-53
2023/11/29 10:08:21;;;;;;;5.80;2.70;;;;;;;;;;5085943;28;20216;-52
2023/11/29 10:10:48;;;;;;;6.82;3.15;;;;;;;;;;5085963;28;20024;-56
2023/11/29 10:13:18;;;;;;;5.78;2.65;;;;;;;;;;5085824;28;20067;-52
2023/11/29 10:15:46;;;;;;;9.90;3.05;;;;;;;;;;5086088;28;20031;-55
2023/11/29 10:18:14;;;;;;;10.48;3.15;;;;;;;;;;5070954;28;20013;-54
2023/11/29 10:20:50;;;;;;;4.97;2.95;;;;;;;;;;5065917;28;20036;-54
2023/11/29 10:23:17;;;;;;;6.22;3.03;;;;;;;;;;5065840;28;20100;-55
2023/11/29 10:25:46;;;;;;;6.53;3.17;;;;;;;;;;5065626;28;20035;-56
2023/11/29 10:28:13;;;;;;;6.22;2.85;;;;;;;;;;5065714;28;20037;-55
2023/11/29 10:30:40;;;;;;;7.18;3.08;;;;;;;;;;5065679;28;20017;-54
2023/11/29 10:33:09;;;;;;;7.32;3.13;;;;;;;;;;5065297;28;20155;-55
2023/11/29 10:35:37;;;;;;;4.35;2.45;;;;;;;;;;5071287;28;20020;-52
2023/11/29 10:38:15;;;;;;;5.13;2.90;;;;;;;;;;5074292;28;20021;-51
2023/11/29 10:40:43;;;;;;;9.55;3.25;;;;;;;;;;5082861;28;20300;-52
2023/11/29 10:43:13;;;;;;;7.22;2.90;;;;;;;;;;5066795;28;20033;-52
2023/11/29 10:45:43;;;;;;;7.57;2.95;;;;;;;;;;5049894;28;20052;-55
2023/11/29 10:48:18;;;;;;;8.18;3.35;;;;;;;;;;5045446;28;20033;-52
2023/11/29 10:50:48;;;;;;;14.75;3.65;;;;;;;;;;5045382;28;20360;-54
2023/11/29 10:53:15;;;;;;;10.15;3.30;;;;;;;;;;5045200;28;20041;-53
2023/11/29 10:55:43;;;;;;;10.57;3.42;;;;;;;;;;5045399;28;20021;-51
2023/11/29 10:58:19;;;;;;;11.32;3.88;;;;;;;;;;5045124;28;20018;-55
2023/11/29 11:00:46;;;;;;;10.93;3.60;;;;;;;;;;5054092;28;20202;-53
2023/11/29 11:03:31;;;;;;;10.10;3.50;;;;;;;;;;5082809;28;20223;-51
2023/11/29 11:06:16;;;;;;;8.25;3.75;;;;;;;;;;5076215;28;20036;-54
2023/11/29 11:08:43;;;;;;;12.45;3.97;;;;;;;;;;5050720;28;20032;-52
2023/11/29 11:11:10;;;;;;;8.65;3.67;;;;;;;;;;5072791;28;20042;-50
2023/11/29 11:13:38;;;;;;;9.50;3.90;;;;;;;;;;5072334;28;20221;-50
2023/11/29 11:16:08;;;;;;;10.30;3.85;;;;;;;;;;5061355;28;20021;-50
2023/11/29 11:18:35;;;;;;;8.57;4.03;;;;;;;;;;5064115;28;20049;-50
2023/11/29 11:21:05;;;;;;;13.02;4.55;;;;;;;;;;5064279;28;20021;-53
2023/11/29 11:23:31;;;;;;;12.68;7.43;;;;;;;;;;5054577;28;20205;-54
2023/11/29 11:25:59;;;;;;;20.67;12.82;;;;;;;;;;5056865;28;20062;-47
2023/11/29 11:28:31;;;;;;;14.60;8.60;;;;;;;;;;5063206;28;20043;-50
2023/11/29 11:31:02;;;;;;;15.63;7.13;;;;;;;;;;5084492;28;20032;-49
2023/11/29 11:33:47;;;;;;;12.82;6.88;;;;;;;;;;5081497;28;20032;-49
2023/11/29 11:36:14;;;;;;;13.23;6.32;;;;;;;;;;5084538;28;20301;-53
2023/11/29 11:38:41;;;;;;;11.07;6.65;;;;;;;;;;5083492;28;20033;-52
2023/11/29 11:41:08;;;;;;;8.38;5.57;;;;;;;;;;5084422;28;20020;-51
2023/11/29 11:43:35;;;;;;;15.68;5.63;;;;;;;;;;5084815;28;20028;-51
2023/11/29 11:46:02;;;;;;;16.10;5.22;;;;;;;;;;5084126;28;20081;-53
2023/11/29 11:48:32;;;;;;;9.45;4.70;;;;;;;;;;5084574;28;20020;-50
2023/11/29 11:51:00;;;;;;;12.27;5.35;;;;;;;;;;5084821;28;20032;-52
2023/11/29 11:53:27;;;;;;;7.40;4.68;;;;;;;;;;5085053;28;20032;-53
2023/11/29 11:55:54;;;;;;;10.07;5.00;;;;;;;;;;5084870;28;20076;-50
2023/11/29 11:58:20;;;;;;;9.57;4.38;;;;;;;;;;5084195;28;20028;-51
2023/11/29 12:00:47;;;;;;;12.27;4.68;;;;;;;;;;5072562;28;20048;-51
2023/11/29 12:03:15;;;;;;;10.60;4.60;;;;;;;;;;5065033;28;20098;-52
2023/11/29 12:05:42;;;;;;;10.82;4.50;;;;;;;;;;5064920;28;20101;-52
2023/11/29 12:08:09;;;;;;;15.82;5.18;;;;;;;;;;5064923;28;20056;-54
2023/11/29 12:10:36;;;;;;;11.65;5.07;;;;;;;;;;5064766;28;20027;-52
2023/11/29 12:13:03;;;;;;;8.30;3.97;;;;;;;;;;5064404;28;20037;-52
2023/11/29 12:15:34;;;;;;;8.77;4.25;;;;;;;;;;5064686;28;20197;-51
2023/11/29 12:18:01;;;;;;;9.82;4.30;;;;;;;;;;5064526;28;20013;-50
2023/11/29 12:20:27;;;;;;;10.57;4.22;;;;;;;;;;5064494;28;20044;-52
2023/11/29 12:22:54;;;;;;;8.02;4.00;;;;;;;;;;5064414;28;20074;-51
2023/11/29 12:25:21;;;;;;;11.90;3.92;;;;;;;;;;5064374;28;20017;-52
2023/11/29 12:27:50;;;;;;;9.30;3.95;;;;;;;;;;5064153;28;20325;-51
2023/11/29 12:30:17;;;;;;;8.40;3.58;;;;;;;;;;5064206;28;20036;-52
2023/11/29 12:32:44;;;;;;;5.25;3.30;;;;;;;;;;5064647;28;20079;-51
2023/11/29 12:35:15;;;;;;;5.15;3.20;;;;;;;;;;5063878;28;20048;-50
2023/11/29 12:37:46;;;;;;;6.28;3.60;;;;;;;;;;5063992;28;20040;-50
2023/11/29 12:40:17;;;;;;;3.97;2.75;;;;;;;;;;5064166;28;20028;-51
2023/11/29 12:42:44;;;;;;;6.22;3.25;;;;;;;;;;5064263;28;20029;-53
2023/11/29 12:45:11;;;;;;;4.85;2.78;;;;;;;;;;5064303;28;20025;-52
2023/11/29 12:47:39;;;;;;;7.60;2.65;;;;;;;;;;5064071;28;20036;-52
2023/11/29 12:50:07;;;;;;;5.47;2.85;;;;;;;;;;5064190;28;20035;-51
2023/11/29 12:52:35;;;;;;;4.07;2.38;;;;;;;;;;5064266;28;20028;-55
2023/11/29 12:55:02;;;;;;;2.83;1.92;;;;;;;;;;5059356;28;20052;-49
2023/11/29 12:57:29;;;;;;;4.88;2.63;;;;;;;;;;5045407;28;20306;-49
2023/11/29 12:59:57;;;;;;;9.27;2.40;;;;;;;;;;5046838;28;20046;-51
2023/11/29 13:02:23;;;;;;;5.50;2.40;;;;;;;;;;5046854;28;20029;-55
2023/11/29 13:04:50;;;;;;;4.18;2.60;;;;;;;;;;5046937;28;20028;-56
2023/11/29 13:07:18;;;;;;;6.25;2.00;;;;;;;;;;5046642;28;20017;-49
2023/11/29 13:09:45;;;;;;;5.85;2.28;;;;;;;;;;5045770;28;20033;-56
2023/11/29 13:12:11;;;;;;;8.25;2.28;;;;;;;;;;5047111;28;20033;-52
2023/11/29 13:14:41;;;;;;;5.68;1.90;;;;;;;;;;5046074;28;20091;-53
2023/11/29 13:17:12;;;;;;;7.82;1.92;;;;;;;;;;5045469;28;20025;-52
2023/11/29 13:21:45;;;;;;;7.20;2.00;;;;;;;;;;5120413;27;20392;-52
2023/11/29 13:24:12;;;;;;;5.25;2.00;;;;;;;;;;5120224;28;20027;-53
2023/11/29 13:26:39;;;;;;;5.00;1.90;;;;;;;;;;5120038;28;20047;-56
2023/11/29 13:29:06;;;;;;;3.75;2.20;;;;;;;;;;5120212;28;20049;-56
2023/11/29 13:31:33;;;;;;;4.93;1.90;;;;;;;;;;5121699;28;20023;-52
2023/11/29 13:34:00;;;;;;;4.55;1.98;;;;;;;;;;5122657;28;20039;-55
2023/11/29 13:36:27;;;;;;;3.67;1.70;;;;;;;;;;5122228;28;20019;-53
2023/11/29 13:38:54;;;;;;;2.75;1.42;;;;;;;;;;5119950;28;20434;-52
2023/11/29 13:41:20;;;;;;;5.22;1.60;;;;;;;;;;5120182;28;20035;-52
2023/11/29 13:43:47;;;;;;;3.90;1.60;;;;;;;;;;5120106;28;20323;-52
2023/11/29 13:46:15;;;;;;;3.40;1.67;;;;;;;;;;5113259;28;20024;-51
2023/11/29 13:48:42;;;;;;;3.63;1.55;;;;;;;;;;5101116;28;20028;-52
2023/11/29 13:51:08;;;;;;;4.47;1.55;;;;;;;;;;5101935;28;20081;-51
2023/11/29 13:53:37;;;;;;;3.80;1.70;;;;;;;;;;5101482;28;20334;-53
2023/11/29 13:56:06;;;;;;;6.22;1.58;;;;;;;;;;5101783;28;20032;-50
2023/11/29 13:58:33;;;;;;;2.47;1.60;;;;;;;;;;5101427;28;20027;-52
2023/11/29 14:01:00;;;;;;;2.40;1.70;;;;;;;;;;5101561;28;20081;-53
2023/11/29 14:03:26;;;;;;;3.75;1.70;;;;;;;;;;5101074;28;20339;-53
2023/11/29 14:05:53;;;;;;;6.25;1.88;;;;;;;;;;5101789;28;20020;-52
2023/11/29 14:08:20;;;;;;;4.03;2.03;;;;;;;;;;5100729;28;20048;-52
2023/11/29 14:10:47;;;;;;;7.03;2.30;;;;;;;;;;5099172;28;20047;-57
2023/11/29 14:13:14;;;;;;;4.25;1.88;;;;;;;;;;5099415;28;20199;-52
2023/11/29 14:15:41;;;;;;;4.80;1.63;;;;;;;;;;5100500;28;20100;-53
2023/11/29 14:18:07;;;;;;;5.53;2.30;;;;;;;;;;5099935;28;20055;-54
2023/11/29 14:20:34;;;;;;;3.97;1.98;;;;;;;;;;5099869;28;20063;-50
2023/11/29 14:23:01;;;;;;;12.15;1.95;;;;;;;;;;5101403;28;20024;-50
2023/11/29 14:25:28;;;;;;;2.47;1.60;;;;;;;;;;5101626;28;20213;-50
2023/11/29 14:27:55;;;;;;;7.28;2.90;;;;;;;;;;5101253;28;20422;-51
2023/11/29 14:30:21;;;;;;;5.50;3.63;;;;;;;;;;5101553;28;20087;-49
2023/11/29 14:32:48;;;;;;;11.60;4.00;;;;;;;;;;5089160;28;20047;-49
2023/11/29 14:35:15;;;;;;;4.68;2.95;;;;;;;;;;5087684;28;20062;-49
2023/11/29 14:37:42;;;;;;;5.20;2.80;;;;;;;;;;5087640;28;20106;-49
2023/11/29 14:40:09;;;;;;;3.95;2.38;;;;;;;;;;5087646;28;20035;-50
2023/11/29 14:42:36;;;;;;;6.32;2.38;;;;;;;;;;5087184;28;20062;-49
2023/11/29 14:45:04;;;;;;;2.80;2.03;;;;;;;;;;5087626;28;20040;-51